Time;durP1;ratioP1;P1;durP2;ratioP2;P2;SDS_P1;SDS_P2;PMS_P1;PMS_P2;Temp;Humidity;BMP_temperature;BMP_pressure;BME280_temperature;BME280_humidity;BME280_pressure;Samples;Min_cycle;Max_cycle;Signal;HPM_P1;HPM_P2
2022/01/16 00:04:10;;;;;;;;;;;20.00;35.50;;;;;;5097595;28;19912;-63
2022/01/16 00:06:37;;;;;;;;;;;20.00;35.50;;;;;;5097070;28;19953;-63
2022/01/16 00:09:03;;;;;;;;;;;20.00;35.60;;;;;;5097109;28;19982;-64
2022/01/16 00:11:29;;;;;;;;;;;20.00;35.60;;;;;;5096981;28;20287;-63
2022/01/16 00:13:54;;;;;;;;;;;20.00;35.60;;;;;;5097191;28;19908;-63
2022/01/16 00:16:20;;;;;;;;;;;20.00;35.50;;;;;;5096893;28;19908;-63
2022/01/16 00:18:52;;;;;;;;;;;20.00;35.60;;;;;;5096902;28;19934;-63
2022/01/16 00:21:24;;;;;;;;;;;20.00;35.60;;;;;;5096885;28;20027;-63
2022/01/16 00:23:51;;;;;;;;;;;20.00;35.50;;;;;;5096777;28;19908;-63
2022/01/16 00:26:16;;;;;;;;;;;19.90;35.50;;;;;;5097043;28;20260;-63
2022/01/16 00:28:42;;;;;;;;;;;20.00;35.60;;;;;;5096716;28;20375;-63
2022/01/16 00:31:08;;;;;;;;;;;19.90;35.60;;;;;;5096919;28;19912;-63
2022/01/16 00:33:33;;;;;;;;;;;19.90;35.60;;;;;;5096697;28;19954;-63
2022/01/16 00:35:59;;;;;;;;;;;19.90;35.60;;;;;;5096630;28;19915;-63
2022/01/16 00:38:24;;;;;;;;;;;19.90;35.60;;;;;;5096451;28;19908;-63
2022/01/16 00:40:50;;;;;;;;;;;19.90;35.60;;;;;;5096471;28;20386;-63
2022/01/16 00:43:15;;;;;;;;;;;19.90;35.60;;;;;;5096510;28;20391;-63
2022/01/16 00:45:41;;;;;;;;;;;19.80;35.60;;;;;;5096631;28;19916;-63
2022/01/16 00:48:07;;;;;;;;;;;19.80;35.60;;;;;;5096338;28;19914;-63
2022/01/16 00:50:33;;;;;;;;;;;19.80;35.60;;;;;;5096296;28;19908;-63
2022/01/16 00:52:59;;;;;;;;;;;19.80;35.60;;;;;;5096196;28;19908;-63
2022/01/16 00:55:25;;;;;;;;;;;19.80;35.60;;;;;;5096463;28;19908;-63
2022/01/16 00:57:50;;;;;;;;;;;19.80;35.60;;;;;;5096176;28;19912;-63
2022/01/16 01:00:16;;;;;;;;;;;19.80;35.60;;;;;;5077827;28;19920;-63
2022/01/16 01:02:41;;;;;;;;;;;19.80;35.60;;;;;;5095022;28;19957;-63
2022/01/16 01:05:08;;;;;;;;;;;19.80;35.60;;;;;;5096015;28;19908;-63
2022/01/16 01:07:34;;;;;;;;;;;19.70;35.60;;;;;;5095955;28;19908;-63
2022/01/16 01:09:59;;;;;;;;;;;19.70;35.60;;;;;;5095944;28;20370;-63
2022/01/16 01:12:33;;;;;;;;;;;19.70;35.60;;;;;;5096140;28;19908;-63
2022/01/16 01:15:07;;;;;;;;;;;19.70;35.60;;;;;;5095875;28;19908;-63
2022/01/16 01:17:37;;;;;;;;;;;19.70;35.60;;;;;;5095872;28;19915;-63
2022/01/16 01:20:04;;;;;;;;;;;19.70;35.60;;;;;;5095649;28;20280;-63
2022/01/16 01:22:29;;;;;;;;;;;19.70;35.70;;;;;;5095633;28;19920;-63
2022/01/16 01:24:55;;;;;;;;;;;19.70;35.70;;;;;;5095517;28;20312;-62
2022/01/16 01:27:29;;;;;;;;;;;19.70;35.70;;;;;;5077412;28;20018;-63
2022/01/16 01:30:01;;;;;;;;;;;19.60;35.70;;;;;;5095574;28;20287;-63
2022/01/16 01:32:27;;;;;;;;;;;19.60;35.70;;;;;;5077364;28;19915;-63
2022/01/16 01:34:53;;;;;;;;;;;19.60;35.70;;;;;;5095415;28;20267;-63
2022/01/16 01:37:18;;;;;;;;;;;19.60;35.70;;;;;;5095314;28;19948;-64
2022/01/16 01:39:43;;;;;;;;;;;19.60;35.70;;;;;;5095285;28;20089;-63
2022/01/16 01:42:11;;;;;;;;;;;19.60;35.70;;;;;;5095147;28;19916;-64
2022/01/16 01:52:52;;;;;;;;;;;19.60;35.70;;;;;;5095131;28;20409;-63
2022/01/16 01:55:18;;;;;;;;;;;19.50;35.70;;;;;;5095056;28;20002;-63
2022/01/16 01:57:43;;;;;;;;;;;19.50;35.70;;;;;;5094924;28;19908;-63
2022/01/16 02:00:09;;;;;;;;;;;19.50;35.70;;;;;;5094775;28;20345;-64
2022/01/16 02:02:46;;;;;;;;;;;19.50;35.70;;;;;;5094922;28;20320;-63
2022/01/16 02:05:11;;;;;;;;;;;19.50;35.70;;;;;;5094889;28;19912;-64
2022/01/16 02:07:36;;;;;;;;;;;19.50;35.70;;;;;;5094797;28;19909;-64
2022/01/16 02:10:03;;;;;;;;;;;19.50;35.80;;;;;;5094724;28;20404;-63
2022/01/16 02:12:30;;;;;;;;;;;19.50;35.80;;;;;;5094152;28;19951;-64
2022/01/16 02:15:05;;;;;;;;;;;19.50;35.80;;;;;;5094733;28;19908;-63
2022/01/16 02:31:16;;;;;;;;;;;19.40;35.70;;;;;;5094406;28;19916;-63
2022/01/16 02:36:30;;;;;;;;;;;19.40;35.70;;;;;;5094163;28;20402;-63
2022/01/16 02:38:56;;;;;;;;;;;19.40;35.80;;;;;;5094265;28;19914;-63
2022/01/16 02:41:23;;;;;;;;;;;19.40;35.70;;;;;;5094014;28;19981;-62
2022/01/16 02:43:50;;;;;;;;;;;19.40;35.70;;;;;;5094140;28;20382;-63
2022/01/16 02:48:48;;;;;;;;;;;19.40;35.70;;;;;;5094051;28;20351;-63
2022/01/16 02:51:22;;;;;;;;;;;19.40;35.70;;;;;;5093997;28;19909;-63
2022/01/16 02:53:47;;;;;;;;;;;19.40;35.70;;;;;;5093823;28;19912;-62
2022/01/16 02:56:14;;;;;;;;;;;19.40;35.70;;;;;;5093784;28;19957;-63
2022/01/16 02:58:39;;;;;;;;;;;19.40;35.70;;;;;;5094071;28;19910;-63
2022/01/16 03:01:05;;;;;;;;;;;19.30;35.70;;;;;;5093540;28;19965;-63
2022/01/16 03:03:32;;;;;;;;;;;19.30;35.70;;;;;;5093166;28;21317;-64
2022/01/16 03:05:57;;;;;;;;;;;19.30;35.70;;;;;;5093823;28;19930;-63
2022/01/16 03:08:23;;;;;;;;;;;19.30;35.70;;;;;;5075563;28;19954;-63
2022/01/16 03:11:05;;;;;;;;;;;19.40;35.70;;;;;;5093637;28;19912;-63
2022/01/16 03:13:32;;;;;;;;;;;19.30;35.70;;;;;;5093895;28;19912;-63
2022/01/16 03:15:58;;;;;;;;;;;19.30;35.70;;;;;;5093888;28;19908;-63
2022/01/16 03:23:33;;;;;;;;;;;19.30;35.70;;;;;;5093963;28;19954;-64
2022/01/16 03:25:59;;;;;;;;;;;19.30;35.70;;;;;;5074545;28;19911;-63
2022/01/16 03:28:25;;;;;;;;;;;19.30;35.70;;;;;;5093507;28;19930;-63
2022/01/16 03:30:51;;;;;;;;;;;19.30;35.70;;;;;;5093514;28;19934;-63
2022/01/16 03:33:17;;;;;;;;;;;19.30;35.70;;;;;;5093449;28;19962;-63
2022/01/16 03:35:43;;;;;;;;;;;19.30;35.70;;;;;;5093673;28;19948;-63
2022/01/16 03:38:08;;;;;;;;;;;19.20;35.70;;;;;;5093367;28;19908;-63
2022/01/16 03:40:34;;;;;;;;;;;19.20;35.70;;;;;;5093408;28;19915;-64
2022/01/16 03:43:09;;;;;;;;;;;19.30;35.70;;;;;;5093364;28;19912;-63
2022/01/16 03:45:35;;;;;;;;;;;19.30;35.70;;;;;;5093366;28;19931;-63
2022/01/16 03:48:00;;;;;;;;;;;19.20;35.70;;;;;;5093358;28;20283;-63
2022/01/16 03:50:26;;;;;;;;;;;19.20;35.60;;;;;;5093289;28;19908;-63
2022/01/16 03:52:52;;;;;;;;;;;19.20;35.70;;;;;;5093354;28;19912;-63
2022/01/16 03:55:17;;;;;;;;;;;19.20;35.70;;;;;;5093300;28;20364;-63
2022/01/16 03:57:42;;;;;;;;;;;19.20;35.70;;;;;;5093268;28;20329;-63
2022/01/16 04:00:08;;;;;;;;;;;19.20;35.70;;;;;;5093107;28;20291;-63
2022/01/16 04:02:34;;;;;;;;;;;19.20;35.70;;;;;;5093084;28;19926;-63
2022/01/16 04:04:59;;;;;;;;;;;19.20;35.70;;;;;;5093393;28;19908;-63
2022/01/16 04:07:30;;;;;;;;;;;19.20;35.70;;;;;;5093154;28;19955;-63
2022/01/16 04:09:55;;;;;;;;;;;19.20;35.70;;;;;;5093237;28;19908;-63
2022/01/16 04:12:23;;;;;;;;;;;19.20;35.70;;;;;;5075106;28;20371;-64
2022/01/16 04:17:15;;;;;;;;;;;19.20;35.70;;;;;;5093128;28;19908;-63
2022/01/16 04:19:41;;;;;;;;;;;19.20;35.70;;;;;;5093282;28;20118;-64
2022/01/16 04:22:06;;;;;;;;;;;19.20;35.70;;;;;;5093068;28;19923;-63
2022/01/16 04:24:32;;;;;;;;;;;19.10;35.70;;;;;;5093401;28;20374;-63
2022/01/16 04:26:58;;;;;;;;;;;19.10;35.70;;;;;;5092974;28;19915;-63
2022/01/16 04:29:23;;;;;;;;;;;19.10;35.70;;;;;;5093024;28;19912;-63
2022/01/16 04:31:49;;;;;;;;;;;19.10;35.70;;;;;;5092940;28;19908;-63
2022/01/16 04:34:14;;;;;;;;;;;19.20;35.70;;;;;;5092883;28;19915;-63
2022/01/16 04:36:40;;;;;;;;;;;19.10;35.70;;;;;;5076630;28;19908;-63
2022/01/16 04:39:15;;;;;;;;;;;19.20;35.70;;;;;;5096660;28;19915;-65
2022/01/16 04:44:24;;;;;;;;;;;19.10;35.70;;;;;;5096542;28;20332;-63
2022/01/16 04:46:50;;;;;;;;;;;19.10;35.70;;;;;;5096556;28;19943;-64
2022/01/16 04:49:15;;;;;;;;;;;19.10;35.80;;;;;;5096611;28;19969;-63
2022/01/16 04:51:41;;;;;;;;;;;19.10;35.80;;;;;;5096313;28;19913;-64
2022/01/16 04:54:08;;;;;;;;;;;19.10;35.80;;;;;;5096282;28;19915;-63
2022/01/16 04:56:33;;;;;;;;;;;19.10;35.80;;;;;;5096196;28;20355;-63
2022/01/16 04:58:59;;;;;;;;;;;19.10;35.80;;;;;;5077818;28;19915;-63
2022/01/16 05:01:24;;;;;;;;;;;19.10;35.80;;;;;;5096394;28;20023;-64
2022/01/16 05:03:50;;;;;;;;;;;19.00;35.80;;;;;;5096075;28;19989;-63
2022/01/16 05:06:15;;;;;;;;;;;19.00;35.80;;;;;;5077922;28;19950;-64
2022/01/16 05:08:41;;;;;;;;;;;19.00;35.80;;;;;;5095763;28;19912;-64
2022/01/16 05:11:08;;;;;;;;;;;19.00;35.80;;;;;;5095978;28;19908;-64
2022/01/16 05:16:35;;;;;;;;;;;19.10;35.80;;;;;;5095943;28;19915;-63
2022/01/16 05:16:38;;;;;;;;;;;19.00;35.70;;;;;;5095730;28;20002;-63
2022/01/16 05:19:04;;;;;;;;;;;19.10;35.70;;;;;;5096141;28;19969;-63
2022/01/16 05:21:29;;;;;;;;;;;19.10;35.70;;;;;;5095605;28;19951;-64
2022/01/16 05:23:55;;;;;;;;;;;19.10;35.60;;;;;;5095652;28;19915;-63
2022/01/16 05:26:26;;;;;;;;;;;19.20;35.60;;;;;;5095633;28;19919;-63
2022/01/16 05:28:52;;;;;;;;;;;19.20;35.60;;;;;;5078529;28;19959;-63
2022/01/16 05:31:17;;;;;;;;;;;19.20;35.50;;;;;;5095600;28;19947;-63
2022/01/16 05:33:43;;;;;;;;;;;19.20;35.50;;;;;;5095497;28;19908;-63
2022/01/16 05:36:08;;;;;;;;;;;19.30;35.50;;;;;;5095465;28;19909;-64
2022/01/16 05:38:34;;;;;;;;;;;19.30;35.50;;;;;;5095412;28;19908;-63
2022/01/16 05:40:59;;;;;;;;;;;19.30;35.40;;;;;;5095339;28;19916;-63
2022/01/16 05:43:25;;;;;;;;;;;19.30;35.40;;;;;;5095387;28;19987;-63
2022/01/16 05:45:50;;;;;;;;;;;19.40;35.40;;;;;;5095375;28;19908;-63
2022/01/16 05:48:16;;;;;;;;;;;19.40;35.30;;;;;;5094498;28;20008;-64
2022/01/16 05:50:41;;;;;;;;;;;19.40;35.30;;;;;;5077399;28;19912;-63
2022/01/16 05:53:06;;;;;;;;;;;19.40;35.30;;;;;;5076931;28;20347;-63
2022/01/16 05:55:36;;;;;;;;;;;19.50;35.30;;;;;;5094959;28;19977;-63
2022/01/16 05:58:05;;;;;;;;;;;19.50;35.30;;;;;;5095268;28;19916;-63
2022/01/16 06:00:30;;;;;;;;;;;19.50;35.30;;;;;;5094728;28;19920;-63
2022/01/16 06:02:56;;;;;;;;;;;19.50;35.30;;;;;;5076798;28;20376;-63
2022/01/16 06:05:21;;;;;;;;;;;19.50;35.30;;;;;;5076807;28;19912;-63
2022/01/16 06:07:53;;;;;;;;;;;19.50;35.30;;;;;;5094861;28;19912;-63
2022/01/16 06:10:19;;;;;;;;;;;19.50;35.30;;;;;;5095121;28;19912;-63
2022/01/16 06:12:44;;;;;;;;;;;19.50;35.30;;;;;;5076666;28;19912;-63
2022/01/16 06:15:10;;;;;;;;;;;19.50;35.20;;;;;;5094740;28;19908;-64
2022/01/16 06:17:35;;;;;;;;;;;19.50;35.20;;;;;;5094653;28;19923;-63
2022/01/16 06:20:01;;;;;;;;;;;19.50;35.30;;;;;;5076408;28;20451;-63
2022/01/16 06:22:26;;;;;;;;;;;19.60;35.20;;;;;;5094780;28;19923;-63
2022/01/16 06:24:52;;;;;;;;;;;19.50;35.20;;;;;;5076384;28;19908;-62
2022/01/16 06:27:17;;;;;;;;;;;19.60;35.20;;;;;;5094499;28;19912;-63
2022/01/16 06:29:43;;;;;;;;;;;19.60;35.20;;;;;;5094484;28;19908;-64
2022/01/16 06:32:08;;;;;;;;;;;19.50;35.20;;;;;;5076233;28;19916;-63
2022/01/16 06:34:34;;;;;;;;;;;19.60;35.20;;;;;;5094331;28;20012;-63
2022/01/16 06:36:59;;;;;;;;;;;19.60;35.20;;;;;;5094324;28;20276;-63
2022/01/16 06:39:25;;;;;;;;;;;19.70;35.20;;;;;;5094316;28;19912;-64
2022/01/16 06:41:50;;;;;;;;;;;19.70;35.20;;;;;;5094192;28;19916;-63
2022/01/16 06:44:16;;;;;;;;;;;19.70;35.20;;;;;;5094143;28;19919;-63
2022/01/16 06:46:41;;;;;;;;;;;19.70;35.20;;;;;;5094112;28;19912;-64
2022/01/16 06:49:07;;;;;;;;;;;19.70;35.20;;;;;;5094104;28;19954;-61
2022/01/16 06:51:32;;;;;;;;;;;19.70;35.10;;;;;;5093953;28;19912;-64
2022/01/16 06:53:59;;;;;;;;;;;19.70;35.20;;;;;;5094018;28;19908;-63
2022/01/16 06:56:25;;;;;;;;;;;19.70;35.20;;;;;;5075790;28;19991;-63
2022/01/16 06:58:50;;;;;;;;;;;19.70;35.20;;;;;;5093820;28;20405;-63
2022/01/16 07:01:16;;;;;;;;;;;19.70;35.20;;;;;;5093815;28;19916;-63
2022/01/16 07:03:42;;;;;;;;;;;19.80;35.20;;;;;;5093826;28;19912;-63
2022/01/16 07:06:07;;;;;;;;;;;19.80;35.20;;;;;;5093690;28;19912;-63
2022/01/16 07:08:33;;;;;;;;;;;19.70;35.10;;;;;;5093784;28;19908;-64
2022/01/16 07:10:59;;;;;;;;;;;19.80;35.20;;;;;;5093775;28;19909;-63
2022/01/16 07:13:25;;;;;;;;;;;19.80;35.20;;;;;;5093766;28;19912;-64
2022/01/16 07:15:51;;;;;;;;;;;19.80;35.20;;;;;;5093756;28;20363;-63
2022/01/16 07:18:16;;;;;;;;;;;19.80;35.10;;;;;;5093789;28;19946;-64
2022/01/16 07:20:43;;;;;;;;;;;19.80;35.10;;;;;;5094063;28;20363;-63
2022/01/16 07:23:09;;;;;;;;;;;19.80;35.10;;;;;;5093774;28;19958;-63
2022/01/16 07:25:34;;;;;;;;;;;19.90;35.20;;;;;;5093528;28;19908;-64
2022/01/16 07:28:00;;;;;;;;;;;19.80;35.20;;;;;;5093514;28;20418;-63
2022/01/16 07:30:25;;;;;;;;;;;19.80;35.10;;;;;;5093571;28;20398;-63
2022/01/16 07:32:51;;;;;;;;;;;19.80;35.10;;;;;;5093507;28;19912;-63
2022/01/16 07:35:16;;;;;;;;;;;19.80;35.10;;;;;;5093413;28;19916;-63
2022/01/16 07:37:41;;;;;;;;;;;19.90;35.10;;;;;;5093505;28;20010;-63
2022/01/16 07:40:09;;;;;;;;;;;19.90;35.10;;;;;;5093728;28;20359;-63
2022/01/16 07:42:34;;;;;;;;;;;19.90;35.10;;;;;;5075276;28;20007;-63
2022/01/16 07:45:00;;;;;;;;;;;19.90;35.10;;;;;;5093377;28;19994;-63
2022/01/16 07:47:25;;;;;;;;;;;19.90;35.10;;;;;;5093680;28;20312;-63
2022/01/16 07:49:51;;;;;;;;;;;19.90;35.10;;;;;;5093298;28;19912;-63
2022/01/16 07:52:16;;;;;;;;;;;19.90;35.20;;;;;;5093352;28;19915;-63
2022/01/16 07:54:41;;;;;;;;;;;20.00;35.10;;;;;;5093282;28;19958;-63
2022/01/16 07:57:07;;;;;;;;;;;19.90;35.10;;;;;;5093483;28;19908;-63
2022/01/16 07:59:32;;;;;;;;;;;20.00;35.10;;;;;;5093130;28;19965;-63
2022/01/16 08:01:58;;;;;;;;;;;19.90;35.10;;;;;;5093171;28;19961;-63
2022/01/16 08:04:23;;;;;;;;;;;19.90;35.20;;;;;;5093175;28;19908;-63
2022/01/16 08:06:49;;;;;;;;;;;20.00;35.20;;;;;;5093334;28;19941;-63
2022/01/16 08:09:14;;;;;;;;;;;20.00;35.10;;;;;;5093173;28;19909;-63
2022/01/16 08:11:39;;;;;;;;;;;20.00;35.10;;;;;;5095095;28;19915;-63
2022/01/16 08:14:05;;;;;;;;;;;20.00;35.10;;;;;;5097339;28;19915;-63
2022/01/16 08:16:30;;;;;;;;;;;20.00;35.10;;;;;;5097014;28;19909;-64
2022/01/16 08:18:56;;;;;;;;;;;20.00;35.10;;;;;;5096895;28;20363;-63
2022/01/16 08:21:21;;;;;;;;;;;20.00;35.10;;;;;;5097015;28;19970;-63
2022/01/16 08:23:47;;;;;;;;;;;20.00;35.10;;;;;;5078735;28;19922;-63
2022/01/16 08:26:12;;;;;;;;;;;20.00;35.10;;;;;;5078627;28;19912;-63
2022/01/16 08:28:38;;;;;;;;;;;20.00;35.10;;;;;;5096790;28;20360;-63
2022/01/16 08:31:03;;;;;;;;;;;20.00;35.10;;;;;;5096694;28;19912;-64
2022/01/16 08:33:29;;;;;;;;;;;20.00;35.10;;;;;;5096620;28;19951;-63
2022/01/16 08:35:54;;;;;;;;;;;20.00;35.10;;;;;;5096701;28;19908;-63
2022/01/16 08:38:21;;;;;;;;;;;20.00;35.10;;;;;;5096635;28;19909;-63
2022/01/16 08:40:46;;;;;;;;;;;20.00;35.10;;;;;;5096517;28;19920;-63
2022/01/16 08:43:11;;;;;;;;;;;20.10;35.10;;;;;;5096463;28;20272;-63
2022/01/16 08:45:38;;;;;;;;;;;20.10;35.10;;;;;;5078329;28;19908;-63
2022/01/16 08:48:04;;;;;;;;;;;20.10;35.10;;;;;;5096415;28;19908;-63
2022/01/16 08:50:31;;;;;;;;;;;20.10;35.10;;;;;;5096294;28;19915;-63
2022/01/16 08:52:56;;;;;;;;;;;20.10;35.10;;;;;;5096275;28;20046;-63
2022/01/16 08:55:22;;;;;;;;;;;20.10;35.10;;;;;;5096238;28;20003;-63
2022/01/16 08:57:47;;;;;;;;;;;20.10;35.10;;;;;;5096229;28;20000;-63
2022/01/16 09:00:13;;;;;;;;;;;20.10;35.10;;;;;;5095963;28;19929;-64
2022/01/16 09:02:38;;;;;;;;;;;20.10;35.10;;;;;;5095944;28;19951;-63
2022/01/16 09:05:04;;;;;;;;;;;20.10;35.10;;;;;;5096313;28;19908;-63
2022/01/16 09:07:29;;;;;;;;;;;20.10;35.20;;;;;;5095894;28;19908;-63
2022/01/16 09:09:57;;;;;;;;;;;20.10;35.10;;;;;;5096005;28;19915;-63
2022/01/16 09:12:23;;;;;;;;;;;20.10;35.10;;;;;;5095915;28;19913;-64
2022/01/16 09:14:48;;;;;;;;;;;20.10;35.10;;;;;;5077738;28;19965;-63
2022/01/16 09:17:14;;;;;;;;;;;20.10;35.10;;;;;;5095837;28;19908;-63
2022/01/16 09:19:39;;;;;;;;;;;20.20;35.10;;;;;;5095817;28;19908;-63
2022/01/16 09:22:05;;;;;;;;;;;20.20;35.10;;;;;;5095232;28;19916;-63
2022/01/16 09:24:31;;;;;;;;;;;20.20;35.10;;;;;;5095192;28;19915;-63
2022/01/16 09:26:56;;;;;;;;;;;20.10;35.10;;;;;;5095714;28;19908;-63
2022/01/16 09:29:22;;;;;;;;;;;20.20;35.10;;;;;;5095639;28;20008;-63
2022/01/16 09:31:47;;;;;;;;;;;20.20;35.10;;;;;;5095599;28;19915;-63
2022/01/16 09:34:13;;;;;;;;;;;20.20;35.10;;;;;;5077351;28;19908;-64
2022/01/16 09:36:38;;;;;;;;;;;20.20;35.10;;;;;;5095496;28;19915;-63
2022/01/16 09:39:04;;;;;;;;;;;20.20;35.10;;;;;;5095630;28;19915;-63
2022/01/16 09:41:29;;;;;;;;;;;20.20;35.10;;;;;;5095533;28;20015;-63
2022/01/16 09:43:55;;;;;;;;;;;20.20;35.10;;;;;;5095322;28;20280;-63
2022/01/16 09:46:20;;;;;;;;;;;20.20;35.10;;;;;;5095201;28;19908;-63
2022/01/16 09:48:46;;;;;;;;;;;20.20;35.10;;;;;;5095214;28;20399;-63
2022/01/16 09:51:11;;;;;;;;;;;20.20;35.10;;;;;;5095248;28;19913;-63
2022/01/16 09:53:40;;;;;;;;;;;20.30;35.10;;;;;;5095081;28;19908;-63
2022/01/16 09:56:06;;;;;;;;;;;20.20;35.10;;;;;;5095083;28;19954;-63
2022/01/16 09:58:32;;;;;;;;;;;20.20;35.10;;;;;;5076780;28;20389;-63
2022/01/16 10:00:57;;;;;;;;;;;20.30;35.10;;;;;;5094690;28;19971;-63
2022/01/16 10:03:33;;;;;;;;;;;20.30;35.10;;;;;;5094974;28;19929;-63
2022/01/16 10:06:13;;;;;;;;;;;20.30;35.10;;;;;;5094909;28;20371;-63
2022/01/16 10:08:39;;;;;;;;;;;20.30;35.10;;;;;;5094854;28;20342;-63
2022/01/16 10:11:26;;;;;;;;;;;20.30;35.10;;;;;;5095011;28;20012;-63
2022/01/16 10:14:02;;;;;;;;;;;20.30;35.10;;;;;;5094861;28;19991;-63
2022/01/16 10:16:32;;;;;;;;;;;20.30;35.10;;;;;;5094568;28;19914;-63
2022/01/16 10:18:57;;;;;;;;;;;20.30;35.10;;;;;;5094648;28;19956;-64
2022/01/16 10:21:39;;;;;;;;;;;20.30;35.10;;;;;;5094757;28;19943;-63
2022/01/16 10:24:15;;;;;;;;;;;20.30;35.10;;;;;;5076237;28;19915;-63
2022/01/16 10:26:41;;;;;;;;;;;20.40;35.10;;;;;;5094536;28;19908;-63
2022/01/16 10:29:07;;;;;;;;;;;20.40;35.10;;;;;;5094432;28;19912;-63
2022/01/16 10:31:32;;;;;;;;;;;20.40;35.10;;;;;;5094443;28;20284;-63
2022/01/16 10:33:58;;;;;;;;;;;20.40;35.10;;;;;;5093973;28;20389;-63
2022/01/16 10:36:34;;;;;;;;;;;20.40;35.00;;;;;;5094158;28;19934;-63
2022/01/16 10:39:03;;;;;;;;;;;20.40;35.10;;;;;;5094145;28;19999;-63
2022/01/16 10:41:29;;;;;;;;;;;20.40;35.10;;;;;;5094321;28;19957;-63
2022/01/16 10:43:54;;;;;;;;;;;20.40;35.10;;;;;;5094216;28;19934;-63
2022/01/16 10:46:24;;;;;;;;;;;20.40;35.10;;;;;;5075963;28;19955;-63
2022/01/16 10:49:09;;;;;;;;;;;20.40;35.10;;;;;;5094078;28;19943;-62
2022/01/16 10:51:36;;;;;;;;;;;20.40;35.10;;;;;;5094076;28;19916;-63
2022/01/16 10:54:21;;;;;;;;;;;20.40;35.00;;;;;;5094024;28;19912;-63
2022/01/16 10:56:47;;;;;;;;;;;20.40;35.10;;;;;;5093761;28;20003;-63
2022/01/16 10:59:22;;;;;;;;;;;20.40;35.10;;;;;;5093712;28;20008;-63
2022/01/16 11:02:06;;;;;;;;;;;20.40;35.10;;;;;;5093810;28;19917;-63
2022/01/16 11:04:31;;;;;;;;;;;20.50;35.10;;;;;;5093957;28;20473;-63
2022/01/16 11:07:01;;;;;;;;;;;20.40;35.10;;;;;;5093765;28;19908;-63
2022/01/16 11:09:27;;;;;;;;;;;20.50;35.10;;;;;;5093776;28;19908;-63
2022/01/16 11:11:59;;;;;;;;;;;20.50;35.10;;;;;;5093579;28;19915;-63
2022/01/16 11:14:28;;;;;;;;;;;20.50;35.10;;;;;;5093732;28;19915;-63
2022/01/16 11:16:54;;;;;;;;;;;20.40;35.10;;;;;;5093721;28;20315;-63
2022/01/16 11:19:23;;;;;;;;;;;20.50;35.10;;;;;;5075569;28;19912;-63
2022/01/16 11:21:52;;;;;;;;;;;20.50;35.10;;;;;;5093568;28;20014;-63
2022/01/16 11:24:32;;;;;;;;;;;20.50;35.10;;;;;;5093574;28;19923;-63
2022/01/16 11:26:59;;;;;;;;;;;20.50;35.10;;;;;;5093586;28;19908;-63
2022/01/16 11:29:25;;;;;;;;;;;20.50;35.10;;;;;;5093723;28;19908;-63
2022/01/16 11:31:51;;;;;;;;;;;20.50;35.10;;;;;;5093453;28;20367;-63
2022/01/16 11:34:16;;;;;;;;;;;20.50;35.10;;;;;;5093384;28;19909;-63
2022/01/16 11:36:42;;;;;;;;;;;20.50;35.10;;;;;;5093394;28;19966;-62
2022/01/16 11:39:10;;;;;;;;;;;20.50;35.10;;;;;;5093397;28;20710;-63
2022/01/16 11:41:46;;;;;;;;;;;20.50;35.10;;;;;;5093272;28;20378;-63
2022/01/16 11:44:24;;;;;;;;;;;20.50;35.20;;;;;;5093320;28;19909;-63
2022/01/16 11:46:51;;;;;;;;;;;20.50;35.10;;;;;;5095755;28;20338;-63
2022/01/16 11:49:29;;;;;;;;;;;20.50;35.10;;;;;;5097387;28;20318;-63
2022/01/16 11:52:02;;;;;;;;;;;20.50;35.10;;;;;;5097527;28;19941;-63
2022/01/16 11:54:32;;;;;;;;;;;20.50;35.10;;;;;;5097447;28;19908;-63
2022/01/16 11:56:59;;;;;;;;;;;20.50;35.10;;;;;;5097529;28;19915;-63
2022/01/16 11:59:34;;;;;;;;;;;20.50;35.10;;;;;;5097209;28;20482;-63
2022/01/16 12:02:01;;;;;;;;;;;20.60;35.10;;;;;;5097191;28;19920;-62
2022/01/16 12:04:29;;;;;;;;;;;20.60;35.10;;;;;;5097274;28;19968;-61
2022/01/16 12:07:27;;;;;;;;;;;20.50;35.10;;;;;;5097160;28;19995;-63
2022/01/16 12:09:57;;;;;;;;;;;20.50;35.10;;;;;;5096893;28;19919;-63
2022/01/16 12:12:22;;;;;;;;;;;20.60;35.10;;;;;;5097099;28;19916;-63
2022/01/16 12:14:55;;;;;;;;;;;20.60;35.10;;;;;;5097040;28;20030;-62
2022/01/16 12:17:30;;;;;;;;;;;20.60;35.10;;;;;;5096947;28;20026;-62
2022/01/16 12:19:59;;;;;;;;;;;20.50;35.10;;;;;;5096924;28;19977;-63
2022/01/16 12:22:44;;;;;;;;;;;20.60;35.10;;;;;;5096598;28;19916;-62
2022/01/16 12:25:18;;;;;;;;;;;20.60;35.10;;;;;;5096435;28;19908;-63
2022/01/16 12:27:48;;;;;;;;;;;20.50;35.10;;;;;;5096498;28;19908;-63
2022/01/16 12:30:22;;;;;;;;;;;20.60;35.10;;;;;;5096330;28;19908;-63
2022/01/16 12:32:51;;;;;;;;;;;20.60;35.10;;;;;;5096785;28;19912;-63
2022/01/16 12:35:35;;;;;;;;;;;20.60;35.10;;;;;;5096425;28;19912;-63
2022/01/16 12:38:05;;;;;;;;;;;20.60;35.10;;;;;;5096384;28;19962;-62
2022/01/16 12:40:30;;;;;;;;;;;20.60;35.20;;;;;;5096436;28;19908;-63
2022/01/16 12:42:56;;;;;;;;;;;20.60;35.10;;;;;;5096342;28;19916;-63
2022/01/16 12:45:22;;;;;;;;;;;20.60;35.10;;;;;;5096322;28;19956;-63
2022/01/16 12:47:50;;;;;;;;;;;20.60;35.20;;;;;;5096296;28;19961;-63
2022/01/16 12:50:16;;;;;;;;;;;20.60;35.20;;;;;;5096532;28;19908;-63
2022/01/16 12:52:48;;;;;;;;;;;20.60;35.20;;;;;;5096259;28;19962;-63
2022/01/16 12:55:14;;;;;;;;;;;20.60;35.20;;;;;;5096441;28;19916;-64
2022/01/16 12:57:39;;;;;;;;;;;20.60;35.10;;;;;;5096076;28;19909;-64
2022/01/16 13:00:11;;;;;;;;;;;20.60;35.20;;;;;;5095958;28;20299;-63
2022/01/16 13:02:37;;;;;;;;;;;20.60;35.20;;;;;;5096023;28;20048;-63
2022/01/16 13:05:03;;;;;;;;;;;20.60;35.20;;;;;;5096047;28;19908;-63
2022/01/16 13:07:29;;;;;;;;;;;20.60;35.20;;;;;;5096146;28;19912;-63
2022/01/16 13:09:55;;;;;;;;;;;20.60;35.20;;;;;;5095908;28;19961;-63
2022/01/16 13:12:22;;;;;;;;;;;20.60;35.20;;;;;;5095876;28;20011;-63
2022/01/16 13:14:47;;;;;;;;;;;20.60;35.20;;;;;;5095883;28;20382;-63
2022/01/16 13:17:13;;;;;;;;;;;20.60;35.20;;;;;;5096071;28;19908;-63
2022/01/16 13:22:12;;;;;;;;;;;20.60;35.20;;;;;;5095623;28;20018;-63
2022/01/16 13:24:47;;;;;;;;;;;20.60;35.20;;;;;;5095960;28;19908;-63
2022/01/16 13:27:12;;;;;;;;;;;20.60;35.20;;;;;;5095660;28;19916;-63
2022/01/16 13:29:39;;;;;;;;;;;20.70;35.20;;;;;;5077493;28;20359;-62
2022/01/16 13:32:05;;;;;;;;;;;20.60;35.20;;;;;;5095500;28;20418;-62
2022/01/16 13:34:35;;;;;;;;;;;20.60;35.20;;;;;;5095783;28;19991;-62
2022/01/16 13:37:02;;;;;;;;;;;20.60;35.20;;;;;;5077392;28;20010;-64
2022/01/16 13:39:48;;;;;;;;;;;20.70;35.20;;;;;;5060614;28;20305;-64
2022/01/16 13:42:15;;;;;;;;;;;20.70;35.20;;;;;;5095304;28;20356;-64
2022/01/16 13:44:41;;;;;;;;;;;20.70;35.20;;;;;;5095219;28;19908;-63
2022/01/16 13:47:06;;;;;;;;;;;20.70;35.20;;;;;;5095283;28;20002;-63
2022/01/16 13:49:32;;;;;;;;;;;20.70;35.20;;;;;;5095495;28;20361;-64
2022/01/16 13:51:59;;;;;;;;;;;20.70;35.20;;;;;;5095091;28;19989;-64
2022/01/16 13:54:31;;;;;;;;;;;20.70;35.20;;;;;;5094905;28;19934;-64
2022/01/16 13:57:00;;;;;;;;;;;20.70;35.20;;;;;;5076929;28;19908;-63
2022/01/16 13:59:26;;;;;;;;;;;20.70;35.20;;;;;;5076644;28;19923;-63
2022/01/16 14:01:52;;;;;;;;;;;20.70;35.20;;;;;;5095206;28;19916;-63
2022/01/16 14:04:18;;;;;;;;;;;20.70;35.20;;;;;;5094838;28;19908;-63
2022/01/16 14:06:51;;;;;;;;;;;20.70;35.20;;;;;;5094706;28;20275;-63
2022/01/16 14:09:17;;;;;;;;;;;20.70;35.20;;;;;;5094186;28;19961;-64
2022/01/16 14:11:47;;;;;;;;;;;20.70;35.20;;;;;;5094796;28;19912;-63
2022/01/16 14:14:14;;;;;;;;;;;20.70;35.20;;;;;;5094784;28;19912;-64
2022/01/16 14:17:02;;;;;;;;;;;20.70;35.20;;;;;;5076571;28;20027;-63
2022/01/16 14:19:38;;;;;;;;;;;20.70;35.20;;;;;;5094419;28;19908;-63
2022/01/16 14:22:10;;;;;;;;;;;20.70;35.20;;;;;;5094775;28;19916;-63
2022/01/16 14:24:37;;;;;;;;;;;20.70;35.20;;;;;;5094564;28;20291;-63
2022/01/16 14:27:10;;;;;;;;;;;20.70;35.20;;;;;;5094390;28;19916;-64
2022/01/16 14:29:36;;;;;;;;;;;20.70;35.20;;;;;;5094682;28;19962;-62
2022/01/16 14:32:02;;;;;;;;;;;20.70;35.20;;;;;;5094272;28;20356;-62
2022/01/16 14:34:28;;;;;;;;;;;20.70;35.20;;;;;;5094527;28;19992;-62
2022/01/16 14:36:53;;;;;;;;;;;20.70;35.20;;;;;;5094266;28;20367;-62
2022/01/16 14:39:19;;;;;;;;;;;20.70;35.20;;;;;;5094196;28;19915;-63
2022/01/16 14:41:49;;;;;;;;;;;20.70;35.20;;;;;;5094127;28;19923;-63
2022/01/16 14:44:20;;;;;;;;;;;20.70;35.20;;;;;;5094177;28;19908;-63
2022/01/16 14:46:46;;;;;;;;;;;20.70;35.20;;;;;;5093906;28;19960;-63
2022/01/16 14:49:12;;;;;;;;;;;20.70;35.20;;;;;;5093792;28;19915;-63
2022/01/16 14:51:37;;;;;;;;;;;20.70;35.20;;;;;;5093935;28;19908;-62
2022/01/16 14:54:04;;;;;;;;;;;20.70;35.20;;;;;;5093997;28;19915;-63
2022/01/16 14:56:29;;;;;;;;;;;20.70;35.20;;;;;;5093881;28;19934;-62
2022/01/16 14:58:55;;;;;;;;;;;20.70;35.20;;;;;;5093977;28;19908;-63
2022/01/16 15:01:20;;;;;;;;;;;20.70;35.20;;;;;;5093738;28;20313;-63